sensor_id;sensor_type;location;lat;lon;timestamp;temperature;humidity
14934;DHT22;7560;51.364;12.384;2023-03-14T00:04:49;11.60;99.90
14934;DHT22;7560;51.364;12.384;2023-03-14T00:09:51;11.60;99.90
14934;DHT22;7560;51.364;12.384;2023-03-14T00:14:53;11.50;99.90
14934;DHT22;7560;51.364;12.384;2023-03-14T00:19:55;11.50;99.90
14934;DHT22;7560;51.364;12.384;2023-03-14T00:24:57;11.50;99.90
14934;DHT22;7560;51.364;12.384;2023-03-14T00:29:59;11.40;99.90
14934;DHT22;7560;51.364;12.384;2023-03-14T00:35:00;11.30;99.90
14934;DHT22;7560;51.364;12.384;2023-03-14T00:40:03;11.30;99.90
14934;DHT22;7560;51.364;12.384;2023-03-14T00:45:08;11.40;99.90
14934;DHT22;7560;51.364;12.384;2023-03-14T00:50:10;11.30;99.90
14934;DHT22;7560;51.364;12.384;2023-03-14T00:55:12;11.30;99.90
14934;DHT22;7560;51.364;12.384;2023-03-14T01:00:14;11.40;99.90
14934;DHT22;7560;51.364;12.384;2023-03-14T01:05:16;11.40;99.90
14934;DHT22;7560;51.364;12.384;2023-03-14T01:10:18;11.30;99.90
14934;DHT22;7560;51.364;12.384;2023-03-14T01:15:20;11.30;99.90
14934;DHT22;7560;51.364;12.384;2023-03-14T01:20:22;11.30;99.90
14934;DHT22;7560;51.364;12.384;2023-03-14T01:25:23;11.30;99.90
14934;DHT22;7560;51.364;12.384;2023-03-14T01:30:25;11.30;99.90
14934;DHT22;7560;51.364;12.384;2023-03-14T01:35:27;11.30;99.90
14934;DHT22;7560;51.364;12.384;2023-03-14T01:40:29;11.40;99.90
14934;DHT22;7560;51.364;12.384;2023-03-14T01:51:09;11.30;99.90
14934;DHT22;7560;51.364;12.384;2023-03-14T01:56:14;11.40;99.90
14934;DHT22;7560;51.364;12.384;2023-03-14T02:01:18;11.40;99.90
14934;DHT22;7560;51.364;12.384;2023-03-14T02:06:24;11.30;99.90
14934;DHT22;7560;51.364;12.384;2023-03-14T02:11:29;11.30;99.90
14934;DHT22;7560;51.364;12.384;2023-03-14T02:16:31;11.30;99.90
14934;DHT22;7560;51.364;12.384;2023-03-14T02:21:57;11.30;99.90
14934;DHT22;7560;51.364;12.384;2023-03-14T02:27:07;11.20;99.90
14934;DHT22;7560;51.364;12.384;2023-03-14T02:32:10;11.20;99.90
14934;DHT22;7560;51.364;12.384;2023-03-14T02:37:13;11.20;99.90
14934;DHT22;7560;51.364;12.384;2023-03-14T02:42:17;11.10;99.90
14934;DHT22;7560;51.364;12.384;2023-03-14T02:47:21;11.10;99.90
14934;DHT22;7560;51.364;12.384;2023-03-14T02:52:24;11.10;99.90
14934;DHT22;7560;51.364;12.384;2023-03-14T02:57:25;11.10;99.90
14934;DHT22;7560;51.364;12.384;2023-03-14T03:02:27;11.10;99.90
14934;DHT22;7560;51.364;12.384;2023-03-14T03:07:29;11.10;99.90
14934;DHT22;7560;51.364;12.384;2023-03-14T03:12:31;11.10;99.90
14934;DHT22;7560;51.364;12.384;2023-03-14T03:17:33;11.10;99.90
14934;DHT22;7560;51.364;12.384;2023-03-14T03:22:36;11.10;99.90
14934;DHT22;7560;51.364;12.384;2023-03-14T03:27:38;11.30;99.90
14934;DHT22;7560;51.364;12.384;2023-03-14T03:32:39;11.50;99.90
14934;DHT22;7560;51.364;12.384;2023-03-14T03:37:41;11.60;99.90
14934;DHT22;7560;51.364;12.384;2023-03-14T03:42:43;11.60;99.90
14934;DHT22;7560;51.364;12.384;2023-03-14T03:47:45;11.60;99.90
14934;DHT22;7560;51.364;12.384;2023-03-14T03:52:46;11.60;99.90
14934;DHT22;7560;51.364;12.384;2023-03-14T03:57:48;11.60;99.90
14934;DHT22;7560;51.364;12.384;2023-03-14T04:02:50;11.50;99.90
14934;DHT22;7560;51.364;12.384;2023-03-14T04:07:52;11.30;99.90
14934;DHT22;7560;51.364;12.384;2023-03-14T04:12:54;11.30;99.90
14934;DHT22;7560;51.364;12.384;2023-03-14T04:17:58;11.20;99.90
14934;DHT22;7560;51.364;12.384;2023-03-14T04:23:00;11.20;99.90
14934;DHT22;7560;51.364;12.384;2023-03-14T04:28:02;11.10;99.90
14934;DHT22;7560;51.364;12.384;2023-03-14T04:33:05;11.30;99.90
14934;DHT22;7560;51.364;12.384;2023-03-14T04:38:07;11.50;99.90
14934;DHT22;7560;51.364;12.384;2023-03-14T04:43:10;11.40;99.90
14934;DHT22;7560;51.364;12.384;2023-03-14T04:48:12;11.50;99.90
14934;DHT22;7560;51.364;12.384;2023-03-14T04:53:15;11.40;99.90
14934;DHT22;7560;51.364;12.384;2023-03-14T04:58:18;11.50;99.90
14934;DHT22;7560;51.364;12.384;2023-03-14T05:03:20;11.50;99.90
14934;DHT22;7560;51.364;12.384;2023-03-14T05:08:21;11.50;99.90
14934;DHT22;7560;51.364;12.384;2023-03-14T05:13:24;11.50;99.90
14934;DHT22;7560;51.364;12.384;2023-03-14T05:18:26;11.30;99.90
14934;DHT22;7560;51.364;12.384;2023-03-14T05:23:28;11.20;99.90
14934;DHT22;7560;51.364;12.384;2023-03-14T05:28:30;11.10;99.90
14934;DHT22;7560;51.364;12.384;2023-03-14T05:33:31;11.00;99.90
14934;DHT22;7560;51.364;12.384;2023-03-14T05:38:33;10.90;99.90
14934;DHT22;7560;51.364;12.384;2023-03-14T05:43:35;10.90;99.90
14934;DHT22;7560;51.364;12.384;2023-03-14T05:48:37;10.90;99.90
14934;DHT22;7560;51.364;12.384;2023-03-14T05:53:38;11.00;99.90
14934;DHT22;7560;51.364;12.384;2023-03-14T05:58:40;11.00;99.90
14934;DHT22;7560;51.364;12.384;2023-03-14T06:03:42;11.30;99.90
14934;DHT22;7560;51.364;12.384;2023-03-14T06:08:44;11.40;99.90
14934;DHT22;7560;51.364;12.384;2023-03-14T06:13:46;11.50;99.90
14934;DHT22;7560;51.364;12.384;2023-03-14T06:18:47;11.60;99.90
14934;DHT22;7560;51.364;12.384;2023-03-14T06:23:50;11.60;99.90
14934;DHT22;7560;51.364;12.384;2023-03-14T06:28:52;11.50;99.90
14934;DHT22;7560;51.364;12.384;2023-03-14T06:33:55;11.50;99.90
14934;DHT22;7560;51.364;12.384;2023-03-14T06:38:57;11.60;99.90
14934;DHT22;7560;51.364;12.384;2023-03-14T06:43:58;11.60;99.90
14934;DHT22;7560;51.364;12.384;2023-03-14T06:49:00;11.60;99.90
14934;DHT22;7560;51.364;12.384;2023-03-14T06:54:02;11.70;99.90
14934;DHT22;7560;51.364;12.384;2023-03-14T06:59:04;11.80;99.90
14934;DHT22;7560;51.364;12.384;2023-03-14T07:04:06;11.80;99.90
14934;DHT22;7560;51.364;12.384;2023-03-14T07:09:08;11.80;99.90
14934;DHT22;7560;51.364;12.384;2023-03-14T07:14:10;11.70;99.90
14934;DHT22;7560;51.364;12.384;2023-03-14T07:19:12;11.60;99.90
14934;DHT22;7560;51.364;12.384;2023-03-14T07:24:14;11.60;99.90
14934;DHT22;7560;51.364;12.384;2023-03-14T07:29:15;11.70;99.90
14934;DHT22;7560;51.364;12.384;2023-03-14T07:34:17;11.70;99.90
14934;DHT22;7560;51.364;12.384;2023-03-14T07:39:20;11.90;99.90
14934;DHT22;7560;51.364;12.384;2023-03-14T07:44:22;12.20;99.90
14934;DHT22;7560;51.364;12.384;2023-03-14T07:49:24;12.30;99.90
14934;DHT22;7560;51.364;12.384;2023-03-14T07:54:26;12.30;99.90
14934;DHT22;7560;51.364;12.384;2023-03-14T07:59:28;12.20;99.90
14934;DHT22;7560;51.364;12.384;2023-03-14T08:04:29;12.20;99.90
14934;DHT22;7560;51.364;12.384;2023-03-14T08:09:32;12.10;99.90
14934;DHT22;7560;51.364;12.384;2023-03-14T08:14:33;12.30;99.90
14934;DHT22;7560;51.364;12.384;2023-03-14T08:19:35;12.40;99.90
14934;DHT22;7560;51.364;12.384;2023-03-14T08:24:37;12.50;99.90
14934;DHT22;7560;51.364;12.384;2023-03-14T08:29:39;12.80;99.90
14934;DHT22;7560;51.364;12.384;2023-03-14T08:34:43;13.10;99.90
14934;DHT22;7560;51.364;12.384;2023-03-14T08:39:44;13.90;99.90
14934;DHT22;7560;51.364;12.384;2023-03-14T08:44:46;14.10;99.90
14934;DHT22;7560;51.364;12.384;2023-03-14T08:49:48;14.20;99.90
14934;DHT22;7560;51.364;12.384;2023-03-14T08:54:50;14.30;99.90
14934;DHT22;7560;51.364;12.384;2023-03-14T08:59:52;14.60;99.90
14934;DHT22;7560;51.364;12.384;2023-03-14T09:04:54;14.80;99.90
14934;DHT22;7560;51.364;12.384;2023-03-14T09:09:55;14.70;99.90
14934;DHT22;7560;51.364;12.384;2023-03-14T09:14:57;14.90;99.90
14934;DHT22;7560;51.364;12.384;2023-03-14T09:19:59;15.00;99.90
14934;DHT22;7560;51.364;12.384;2023-03-14T09:25:02;15.10;99.90
14934;DHT22;7560;51.364;12.384;2023-03-14T09:30:05;15.00;99.90
14934;DHT22;7560;51.364;12.384;2023-03-14T09:35:07;14.90;99.90
14934;DHT22;7560;51.364;12.384;2023-03-14T09:40:12;14.90;99.90
14934;DHT22;7560;51.364;12.384;2023-03-14T09:45:25;15.00;99.90
14934;DHT22;7560;51.364;12.384;2023-03-14T09:50:38;15.20;99.90
14934;DHT22;7560;51.364;12.384;2023-03-14T09:55:42;15.20;99.90
14934;DHT22;7560;51.364;12.384;2023-03-14T10:00:44;15.00;99.90
14934;DHT22;7560;51.364;12.384;2023-03-14T10:05:46;15.00;99.90
14934;DHT22;7560;51.364;12.384;2023-03-14T10:10:48;15.00;99.90
14934;DHT22;7560;51.364;12.384;2023-03-14T10:16:01;15.10;99.90
14934;DHT22;7560;51.364;12.384;2023-03-14T10:21:24;15.00;99.90
14934;DHT22;7560;51.364;12.384;2023-03-14T10:26:27;14.90;99.90
14934;DHT22;7560;51.364;12.384;2023-03-14T10:31:56;14.60;99.90
14934;DHT22;7560;51.364;12.384;2023-03-14T10:37:07;14.50;99.90
14934;DHT22;7560;51.364;12.384;2023-03-14T10:42:28;14.70;99.90
14934;DHT22;7560;51.364;12.384;2023-03-14T10:47:35;15.00;99.90
14934;DHT22;7560;51.364;12.384;2023-03-14T10:52:46;15.10;99.90
14934;DHT22;7560;51.364;12.384;2023-03-14T10:58:02;15.00;99.90
14934;DHT22;7560;51.364;12.384;2023-03-14T11:03:12;14.80;99.90
14934;DHT22;7560;51.364;12.384;2023-03-14T11:30:23;15.10;99.90
14934;DHT22;7560;51.364;12.384;2023-03-14T11:35:34;15.40;99.90
14934;DHT22;7560;51.364;12.384;2023-03-14T11:40:39;15.30;99.90
14934;DHT22;7560;51.364;12.384;2023-03-14T11:45:42;15.10;99.90
14934;DHT22;7560;51.364;12.384;2023-03-14T11:50:46;15.00;99.90
14934;DHT22;7560;51.364;12.384;2023-03-14T11:55:50;15.10;99.90
14934;DHT22;7560;51.364;12.384;2023-03-14T12:00:54;15.40;99.90
14934;DHT22;7560;51.364;12.384;2023-03-14T12:11:24;15.50;99.90
14934;DHT22;7560;51.364;12.384;2023-03-14T12:16:34;15.60;99.90
14934;DHT22;7560;51.364;12.384;2023-03-14T12:21:49;15.60;99.90
14934;DHT22;7560;51.364;12.384;2023-03-14T12:26:57;15.60;99.90
14934;DHT22;7560;51.364;12.384;2023-03-14T12:32:22;15.70;99.90
14934;DHT22;7560;51.364;12.384;2023-03-14T12:37:37;15.40;99.90
14934;DHT22;7560;51.364;12.384;2023-03-14T12:42:51;15.30;99.90
14934;DHT22;7560;51.364;12.384;2023-03-14T12:48:04;15.30;99.90
14934;DHT22;7560;51.364;12.384;2023-03-14T12:58:26;15.70;99.90
14934;DHT22;7560;51.364;12.384;2023-03-14T13:03:46;15.60;99.90
14934;DHT22;7560;51.364;12.384;2023-03-14T13:08:48;15.60;99.90
14934;DHT22;7560;51.364;12.384;2023-03-14T13:13:57;15.50;99.90
14934;DHT22;7560;51.364;12.384;2023-03-14T13:19:03;15.80;99.90
14934;DHT22;7560;51.364;12.384;2023-03-14T13:24:26;16.00;99.90
14934;DHT22;7560;51.364;12.384;2023-03-14T13:29:30;16.50;99.90
14934;DHT22;7560;51.364;12.384;2023-03-14T13:34:35;16.60;99.90
14934;DHT22;7560;51.364;12.384;2023-03-14T13:39:39;16.60;99.90
14934;DHT22;7560;51.364;12.384;2023-03-14T13:44:41;17.00;99.90
14934;DHT22;7560;51.364;12.384;2023-03-14T13:49:44;17.10;99.90
14934;DHT22;7560;51.364;12.384;2023-03-14T13:54:46;17.00;99.90
14934;DHT22;7560;51.364;12.384;2023-03-14T14:00:04;17.00;99.90
14934;DHT22;7560;51.364;12.384;2023-03-14T14:05:12;16.80;99.90
14934;DHT22;7560;51.364;12.384;2023-03-14T14:10:14;16.80;99.90
14934;DHT22;7560;51.364;12.384;2023-03-14T14:15:41;17.00;99.90
14934;DHT22;7560;51.364;12.384;2023-03-14T14:20:46;16.60;99.90
14934;DHT22;7560;51.364;12.384;2023-03-14T14:25:49;16.10;99.90
14934;DHT22;7560;51.364;12.384;2023-03-14T14:31:04;16.00;99.90
14934;DHT22;7560;51.364;12.384;2023-03-14T14:36:22;16.00;99.90
14934;DHT22;7560;51.364;12.384;2023-03-14T14:41:30;15.90;99.90
14934;DHT22;7560;51.364;12.384;2023-03-14T14:46:35;15.60;99.90
14934;DHT22;7560;51.364;12.384;2023-03-14T14:51:50;15.40;99.90
14934;DHT22;7560;51.364;12.384;2023-03-14T14:56:53;15.20;99.90
14934;DHT22;7560;51.364;12.384;2023-03-14T15:01:59;15.20;99.90
14934;DHT22;7560;51.364;12.384;2023-03-14T15:07:02;14.90;99.90
14934;DHT22;7560;51.364;12.384;2023-03-14T15:12:04;13.90;99.90
14934;DHT22;7560;51.364;12.384;2023-03-14T15:17:10;13.20;99.90
14934;DHT22;7560;51.364;12.384;2023-03-14T15:22:12;9.40;99.90
14934;DHT22;7560;51.364;12.384;2023-03-14T15:27:17;8.10;99.90
14934;DHT22;7560;51.364;12.384;2023-03-14T15:32:19;7.80;99.90
14934;DHT22;7560;51.364;12.384;2023-03-14T15:37:22;7.80;99.90
14934;DHT22;7560;51.364;12.384;2023-03-14T15:42:24;7.90;99.90
14934;DHT22;7560;51.364;12.384;2023-03-14T15:47:25;7.70;99.90
14934;DHT22;7560;51.364;12.384;2023-03-14T15:52:28;7.40;99.90
14934;DHT22;7560;51.364;12.384;2023-03-14T15:57:30;7.30;99.90
14934;DHT22;7560;51.364;12.384;2023-03-14T16:02:32;7.20;99.90
14934;DHT22;7560;51.364;12.384;2023-03-14T16:07:34;6.90;99.90
14934;DHT22;7560;51.364;12.384;2023-03-14T16:12:36;6.80;99.90
14934;DHT22;7560;51.364;12.384;2023-03-14T16:17:37;6.40;99.90
14934;DHT22;7560;51.364;12.384;2023-03-14T16:22:41;6.60;99.90
14934;DHT22;7560;51.364;12.384;2023-03-14T16:27:43;6.60;99.90
14934;DHT22;7560;51.364;12.384;2023-03-14T16:32:45;6.20;99.90
14934;DHT22;7560;51.364;12.384;2023-03-14T16:37:48;5.90;99.90
14934;DHT22;7560;51.364;12.384;2023-03-14T16:42:50;6.00;99.90
14934;DHT22;7560;51.364;12.384;2023-03-14T16:48:12;5.70;99.90
14934;DHT22;7560;51.364;12.384;2023-03-14T16:53:14;5.40;99.90
14934;DHT22;7560;51.364;12.384;2023-03-14T16:58:16;5.30;99.90
14934;DHT22;7560;51.364;12.384;2023-03-14T17:03:18;5.20;99.90
14934;DHT22;7560;51.364;12.384;2023-03-14T17:08:20;5.00;99.90
14934;DHT22;7560;51.364;12.384;2023-03-14T17:13:22;5.20;99.90
14934;DHT22;7560;51.364;12.384;2023-03-14T17:18:27;5.20;99.90
14934;DHT22;7560;51.364;12.384;2023-03-14T17:23:30;5.30;99.90
14934;DHT22;7560;51.364;12.384;2023-03-14T17:28:33;5.00;99.90
14934;DHT22;7560;51.364;12.384;2023-03-14T17:33:38;5.30;99.90
14934;DHT22;7560;51.364;12.384;2023-03-14T17:38:40;5.30;99.90
14934;DHT22;7560;51.364;12.384;2023-03-14T17:43:42;5.50;99.90
14934;DHT22;7560;51.364;12.384;2023-03-14T17:48:45;5.70;99.90
14934;DHT22;7560;51.364;12.384;2023-03-14T17:53:48;5.90;99.90
14934;DHT22;7560;51.364;12.384;2023-03-14T17:58:49;6.10;99.90
14934;DHT22;7560;51.364;12.384;2023-03-14T18:03:52;5.90;99.90
14934;DHT22;7560;51.364;12.384;2023-03-14T18:08:58;6.10;99.90
14934;DHT22;7560;51.364;12.384;2023-03-14T18:14:00;5.90;99.90
14934;DHT22;7560;51.364;12.384;2023-03-14T18:19:04;5.80;99.90
14934;DHT22;7560;51.364;12.384;2023-03-14T18:24:06;5.80;99.90
14934;DHT22;7560;51.364;12.384;2023-03-14T18:29:08;5.80;99.90
14934;DHT22;7560;51.364;12.384;2023-03-14T18:34:10;5.70;99.90
14934;DHT22;7560;51.364;12.384;2023-03-14T18:39:12;5.60;99.90
14934;DHT22;7560;51.364;12.384;2023-03-14T18:44:14;5.50;99.90
14934;DHT22;7560;51.364;12.384;2023-03-14T18:49:16;5.40;99.90
14934;DHT22;7560;51.364;12.384;2023-03-14T18:54:19;5.20;99.90
14934;DHT22;7560;51.364;12.384;2023-03-14T18:59:21;5.00;99.90
14934;DHT22;7560;51.364;12.384;2023-03-14T19:04:23;4.90;99.90
14934;DHT22;7560;51.364;12.384;2023-03-14T19:09:25;4.80;99.90
14934;DHT22;7560;51.364;12.384;2023-03-14T19:14:26;4.70;99.90
14934;DHT22;7560;51.364;12.384;2023-03-14T19:19:28;4.60;99.90
14934;DHT22;7560;51.364;12.384;2023-03-14T19:24:30;4.70;99.90
14934;DHT22;7560;51.364;12.384;2023-03-14T19:29:32;4.70;99.90
14934;DHT22;7560;51.364;12.384;2023-03-14T19:34:39;4.80;99.90
14934;DHT22;7560;51.364;12.384;2023-03-14T19:39:44;4.60;99.90
14934;DHT22;7560;51.364;12.384;2023-03-14T19:44:47;4.50;99.90
14934;DHT22;7560;51.364;12.384;2023-03-14T19:49:50;4.40;99.90
14934;DHT22;7560;51.364;12.384;2023-03-14T19:54:51;4.40;99.90
14934;DHT22;7560;51.364;12.384;2023-03-14T19:59:55;4.40;99.90
14934;DHT22;7560;51.364;12.384;2023-03-14T20:04:59;4.40;99.90
14934;DHT22;7560;51.364;12.384;2023-03-14T20:10:03;4.40;99.90
14934;DHT22;7560;51.364;12.384;2023-03-14T20:15:05;4.40;99.90
14934;DHT22;7560;51.364;12.384;2023-03-14T20:20:08;4.60;99.90
14934;DHT22;7560;51.364;12.384;2023-03-14T20:25:13;4.40;99.90
14934;DHT22;7560;51.364;12.384;2023-03-14T20:30:16;4.50;99.90
14934;DHT22;7560;51.364;12.384;2023-03-14T20:35:33;4.40;99.90
14934;DHT22;7560;51.364;12.384;2023-03-14T20:40:36;4.30;99.90
14934;DHT22;7560;51.364;12.384;2023-03-14T20:45:38;4.30;99.90
14934;DHT22;7560;51.364;12.384;2023-03-14T20:50:40;4.30;99.90
14934;DHT22;7560;51.364;12.384;2023-03-14T20:55:41;4.30;99.90
14934;DHT22;7560;51.364;12.384;2023-03-14T21:00:48;4.20;99.90
14934;DHT22;7560;51.364;12.384;2023-03-14T21:05:51;4.10;99.90
14934;DHT22;7560;51.364;12.384;2023-03-14T21:10:54;4.10;99.90
14934;DHT22;7560;51.364;12.384;2023-03-14T21:16:00;4.00;99.90
14934;DHT22;7560;51.364;12.384;2023-03-14T21:21:02;4.00;99.90
14934;DHT22;7560;51.364;12.384;2023-03-14T21:26:04;3.90;99.90
14934;DHT22;7560;51.364;12.384;2023-03-14T21:31:08;3.90;99.90
14934;DHT22;7560;51.364;12.384;2023-03-14T21:36:13;3.70;99.90
14934;DHT22;7560;51.364;12.384;2023-03-14T21:41:15;3.60;99.90
14934;DHT22;7560;51.364;12.384;2023-03-14T21:46:18;3.50;99.90
14934;DHT22;7560;51.364;12.384;2023-03-14T21:51:20;3.50;99.90
14934;DHT22;7560;51.364;12.384;2023-03-14T21:56:22;3.70;99.90
14934;DHT22;7560;51.364;12.384;2023-03-14T22:01:27;3.70;99.90
14934;DHT22;7560;51.364;12.384;2023-03-14T22:06:29;3.70;99.90
14934;DHT22;7560;51.364;12.384;2023-03-14T22:11:31;3.70;99.90
14934;DHT22;7560;51.364;12.384;2023-03-14T22:16:32;3.80;99.90
14934;DHT22;7560;51.364;12.384;2023-03-14T22:21:34;3.80;99.90
14934;DHT22;7560;51.364;12.384;2023-03-14T22:26:36;3.90;99.90
14934;DHT22;7560;51.364;12.384;2023-03-14T22:31:38;4.00;99.90
14934;DHT22;7560;51.364;12.384;2023-03-14T22:36:40;4.00;99.90
14934;DHT22;7560;51.364;12.384;2023-03-14T22:41:42;4.10;99.90
14934;DHT22;7560;51.364;12.384;2023-03-14T22:46:44;4.10;99.90
14934;DHT22;7560;51.364;12.384;2023-03-14T22:51:46;4.10;99.90
14934;DHT22;7560;51.364;12.384;2023-03-14T22:56:48;4.10;99.90
14934;DHT22;7560;51.364;12.384;2023-03-14T23:01:49;4.10;99.90
14934;DHT22;7560;51.364;12.384;2023-03-14T23:06:51;4.00;99.90
14934;DHT22;7560;51.364;12.384;2023-03-14T23:11:53;4.00;99.90
14934;DHT22;7560;51.364;12.384;2023-03-14T23:16:55;4.10;99.90
14934;DHT22;7560;51.364;12.384;2023-03-14T23:21:57;4.10;99.90
14934;DHT22;7560;51.364;12.384;2023-03-14T23:26:59;4.10;99.90
14934;DHT22;7560;51.364;12.384;2023-03-14T23:32:00;4.00;99.90
14934;DHT22;7560;51.364;12.384;2023-03-14T23:37:02;4.00;99.90
14934;DHT22;7560;51.364;12.384;2023-03-14T23:42:06;4.00;99.90
14934;DHT22;7560;51.364;12.384;2023-03-14T23:47:08;4.00;99.90
14934;DHT22;7560;51.364;12.384;2023-03-14T23:52:10;4.00;99.90
14934;DHT22;7560;51.364;12.384;2023-03-14T23:57:12;4.00;99.90
